CheckWX is a tool to help pilots better visualize weather data.  It is not intended as a substitute for an official pre-flight weather briefing.

07:23:03 UTC

KLRF TAF
Little Rock AFB Airport
Jacksonville, Arkansas, USA
TAF KLRF 210700Z 2107/2213 12006KT 9999 SCT040 BKN080 OVC130 QNH3009INS BECMG 2113/2114 16010G15KT 9999 FEW040 SCT070 SCT200 QNH3007INS BECMG 2122/2123 18006KT 9999 FEW030 SCT060 SCT140 QNH3006INS TX31/2121Z TN20/2110Z

Sep-21@
07:00 UTC

Sep-21 @ 07:00 UTC

Sep-21@
13:00 UTC

Sep-21 @ 13:00 UTC

TAF KLRF 210700Z 2107/2213 12006KT 9999 SCT040 BKN080 OVC130 QNH3009INS
Wind
  • 120° at 6 KTS
Cloud Levels
  • Scattered at 4,000' AGL
  • Broken at 8,000' AGL
  • Overcast at 13,000' AGL

Sep-21@
13:00 UTC

Sep-21 @ 13:00 UTC

Sep-21@
22:00 UTC

Sep-21 @ 22:00 UTC

BECMG 2113/2114 16010G15KT 9999 FEW040 SCT070 SCT200 QNH3007INS

Becoming

Becoming Conditions expected by Sat, Sep 21, 2019 @ 14:00 UTC

Wind
  • 160° at 10 KTS
  • {Gusting to 15 KTS
Cloud Levels
  • Few at 4,000' AGL
  • Scattered at 7,000' AGL
  • Scattered at 20,000' AGL

Sep-21@
22:00 UTC

Sep-21 @ 22:00 UTC

Sep-22@
13:00 UTC

Sep-22 @ 13:00 UTC

BECMG 2122/2123 18006KT 9999 FEW030 SCT060 SCT140 QNH3006INS TX31/2121Z TN20/2110Z

Becoming

Becoming Conditions expected by Sat, Sep 21, 2019 @ 23:00 UTC

Wind
  • 180° at 6 KTS
Cloud Levels
  • Few at 3,000' AGL
  • Scattered at 6,000' AGL
  • Scattered at 14,000' AGL